createdAt,value
2016-04-15T00:00:13.301Z,19.59
2016-04-15T00:01:13.351Z,19.63
2016-04-15T00:02:13.399Z,19.59
2016-04-15T00:03:13.465Z,19.56
2016-04-15T00:04:13.499Z,19.58
2016-04-15T00:05:13.564Z,19.56
2016-04-15T00:06:13.614Z,19.56
2016-04-15T00:07:13.507Z,19.62
2016-04-15T00:08:13.712Z,19.58
2016-04-15T00:09:13.778Z,19.56
2016-04-15T00:10:13.843Z,19.59
2016-04-15T00:11:13.878Z,19.58
2016-04-15T00:12:13.927Z,19.63
2016-04-15T00:13:13.976Z,19.54
2016-04-15T00:14:14.042Z,19.58
2016-04-15T00:15:14.075Z,19.59
2016-04-15T00:16:14.125Z,19.52
2016-04-15T00:17:14.190Z,19.62
2016-04-15T00:18:14.239Z,19.58
2016-04-15T00:19:14.289Z,19.59
2016-04-15T00:20:14.338Z,19.62
2016-04-15T00:21:14.404Z,19.58
2016-04-15T00:22:14.453Z,19.59
2016-04-15T00:23:14.502Z,19.63
2016-04-15T00:24:14.552Z,19.58
2016-04-15T00:25:14.602Z,19.56
2016-04-15T00:26:14.652Z,19.59
2016-04-15T00:27:14.717Z,19.58
2016-04-15T00:28:14.766Z,19.66
2016-04-15T00:29:14.660Z,19.67
2016-04-15T00:30:14.865Z,19.54
2016-04-15T00:31:14.759Z,19.58
2016-04-15T00:32:14.980Z,19.63
2016-04-15T00:33:15.016Z,19.59
2016-04-15T00:34:15.065Z,19.62
2016-04-15T00:35:15.138Z,19.59
2016-04-15T00:36:15.187Z,19.56
2016-04-15T00:37:15.221Z,19.64
2016-04-15T00:38:15.285Z,19.62
2016-04-15T00:39:15.335Z,19.54
2016-04-15T00:40:15.401Z,19.62
2016-04-15T00:41:15.434Z,19.62
2016-04-15T00:42:14.734Z,19.54
2016-04-15T00:43:15.564Z,19.56
2016-04-15T00:44:15.598Z,19.55
2016-04-15T00:45:15.648Z,19.62
2016-04-15T00:46:15.698Z,19.59
2016-04-15T00:47:15.748Z,19.62
2016-04-15T00:48:15.813Z,19.52
2016-04-15T00:49:15.862Z,19.56
2016-04-15T00:50:15.912Z,19.56
2016-04-15T00:51:15.962Z,19.52
2016-04-15T00:52:15.261Z,19.62
2016-04-15T00:53:16.061Z,19.56
2016-04-15T00:54:16.125Z,19.63
2016-04-15T00:55:16.175Z,19.59
2016-04-15T00:56:16.224Z,19.56
2016-04-15T00:57:16.290Z,19.58
2016-04-15T00:58:16.324Z,19.63
2016-04-15T00:59:16.388Z,19.56
2016-04-15T01:00:16.423Z,19.55
2016-04-15T01:01:16.488Z,19.62
2016-04-15T01:02:16.522Z,19.56
2016-04-15T01:03:16.588Z,19.64
2016-04-15T01:04:16.668Z,19.58
2016-04-15T01:05:16.687Z,19.62
2016-04-15T01:06:16.735Z,19.63
2016-04-15T01:07:16.785Z,19.56
2016-04-15T01:08:16.851Z,19.59
2016-04-15T01:09:16.885Z,19.58
2016-04-15T01:10:16.950Z,19.62
2016-04-15T01:11:16.999Z,19.59
2016-04-15T01:12:17.048Z,19.55
2016-04-15T01:13:17.098Z,19.59
2016-04-15T01:14:17.148Z,19.66
2016-04-15T01:15:17.228Z,19.58
2016-04-15T01:16:17.248Z,19.63
2016-04-15T01:17:17.312Z,19.64
2016-04-15T01:18:17.362Z,19.63
2016-04-15T01:19:17.412Z,19.58
2016-04-15T01:20:17.461Z,19.62
2016-04-15T01:21:17.526Z,19.64
2016-04-15T01:22:17.575Z,19.64
2016-04-15T01:23:17.625Z,19.63
2016-04-15T01:24:17.675Z,19.59
2016-04-15T01:25:17.724Z,19.66
2016-04-15T01:26:17.775Z,19.63
2016-04-15T01:27:17.839Z,19.63
2016-04-15T01:28:17.889Z,19.62
2016-04-15T01:29:17.955Z,19.62
2016-04-15T01:30:17.988Z,19.62
2016-04-15T01:31:18.038Z,19.62
2016-04-15T01:32:18.102Z,19.55
2016-04-15T01:33:18.137Z,19.66
2016-04-15T01:34:18.202Z,19.59
2016-04-15T01:35:18.252Z,19.56
2016-04-15T01:36:18.301Z,19.66
2016-04-15T01:37:18.366Z,19.64
2016-04-15T01:38:18.400Z,19.56
2016-04-15T01:39:18.465Z,19.62
2016-04-15T01:40:18.499Z,19.59
2016-04-15T01:41:18.564Z,19.59
2016-04-15T01:42:18.615Z,19.58
2016-04-15T01:43:18.664Z,19.62
2016-04-15T01:44:18.729Z,19.58
2016-04-15T01:45:18.763Z,19.59
2016-04-15T01:46:18.828Z,19.59
2016-04-15T01:47:18.878Z,19.64
2016-04-15T01:48:18.927Z,19.66
2016-04-15T01:49:18.976Z,19.64
2016-04-15T01:50:19.042Z,19.59
2016-04-15T01:51:18.325Z,19.62
2016-04-15T01:52:19.125Z,19.59
2016-04-15T01:53:19.190Z,19.59
2016-04-15T01:54:19.255Z,19.64
2016-04-15T01:55:19.180Z,19.59
2016-04-15T01:56:19.338Z,19.66
2016-04-15T01:57:19.389Z,19.62
2016-04-15T01:58:19.454Z,19.66
2016-04-15T01:59:19.488Z,19.64
2016-04-15T02:00:19.553Z,19.64
2016-04-15T02:01:19.603Z,19.63
2016-04-15T02:02:19.652Z,19.63
2016-04-15T02:03:19.702Z,19.64
2016-04-15T02:04:19.751Z,19.63
2016-04-15T02:05:19.801Z,19.66
2016-04-15T02:06:19.866Z,19.63
2016-04-15T02:07:19.916Z,19.64
2016-04-15T02:08:19.966Z,19.66
2016-04-15T02:09:20.030Z,19.59
2016-04-15T02:10:20.096Z,19.66
2016-04-15T02:11:20.130Z,19.66
2016-04-15T02:12:20.179Z,19.62
2016-04-15T02:13:20.229Z,19.69
2016-04-15T02:14:20.278Z,19.7
2016-04-15T02:15:20.328Z,19.64
2016-04-15T02:16:20.393Z,19.62
2016-04-15T02:17:20.426Z,19.63
2016-04-15T02:18:20.492Z,19.63
2016-04-15T02:19:20.541Z,19.67
2016-04-15T02:20:20.591Z,19.67
2016-04-15T02:21:20.641Z,19.63
2016-04-15T02:22:20.705Z,19.64
2016-04-15T02:23:20.740Z,19.66
2016-04-15T02:24:20.805Z,19.63
2016-04-15T02:25:20.855Z,19.64
2016-04-15T02:26:20.905Z,19.59
2016-04-15T02:27:20.953Z,19.62
2016-04-15T02:28:20.847Z,19.66
2016-04-15T02:29:21.053Z,19.67
2016-04-15T02:30:21.118Z,19.63
2016-04-15T02:31:21.168Z,19.69
2016-04-15T02:32:21.233Z,19.71
2016-04-15T02:33:21.266Z,19.66
2016-04-15T02:34:21.332Z,19.66
2016-04-15T02:35:21.381Z,19.7
2016-04-15T02:36:21.431Z,19.67
2016-04-15T02:37:21.480Z,19.63
2016-04-15T02:38:21.530Z,19.63
2016-04-15T02:39:21.580Z,19.67
2016-04-15T02:40:21.629Z,19.7
2016-04-15T02:41:21.695Z,19.64
2016-04-15T02:42:21.744Z,19.62
2016-04-15T02:43:21.825Z,19.62
2016-04-15T02:44:21.859Z,19.69
2016-04-15T02:45:21.908Z,19.67
2016-04-15T02:46:21.958Z,19.66
2016-04-15T02:47:22.007Z,19.62
2016-04-15T02:48:22.089Z,19.64
2016-04-15T02:49:22.123Z,19.66
2016-04-15T02:50:22.329Z,19.67
2016-04-15T02:51:22.237Z,19.66
2016-04-15T02:52:22.271Z,19.66
2016-04-15T02:53:22.337Z,19.63
2016-04-15T02:54:22.386Z,19.66
2016-04-15T02:55:22.436Z,19.64
2016-04-15T02:56:22.485Z,19.59
2016-04-15T02:57:22.534Z,19.69
2016-04-15T02:58:22.584Z,19.7
2016-04-15T02:59:22.649Z,19.62
2016-04-15T03:00:22.699Z,19.66
2016-04-15T03:01:22.749Z,19.7
2016-04-15T03:02:22.798Z,19.69
2016-04-15T03:03:22.863Z,19.63
2016-04-15T03:04:22.897Z,19.63
2016-04-15T03:05:22.963Z,19.64
2016-04-15T03:06:23.027Z,19.58
2016-04-15T03:07:23.061Z,19.69
2016-04-15T03:08:23.111Z,19.64
2016-04-15T03:09:23.207Z,19.64
2016-04-15T03:10:23.226Z,19.59
2016-04-15T03:11:23.259Z,19.56
2016-04-15T03:12:23.309Z,19.66
2016-04-15T03:13:23.374Z,19.66
2016-04-15T03:14:23.423Z,19.62
2016-04-15T03:15:23.473Z,19.73
2016-04-15T03:16:23.523Z,19.66
2016-04-15T03:17:23.587Z,19.63
2016-04-15T03:18:23.622Z,19.67
2016-04-15T03:19:23.687Z,19.66
2016-04-15T03:20:23.737Z,19.59
2016-04-15T03:21:23.787Z,19.66
2016-04-15T03:22:23.851Z,19.63
2016-04-15T03:23:23.901Z,19.62
2016-04-15T03:24:23.951Z,19.63
2016-04-15T03:25:24.000Z,19.69
2016-04-15T03:26:24.050Z,19.62
2016-04-15T03:27:24.099Z,19.58
2016-04-15T03:28:24.164Z,19.74
2016-04-15T03:29:24.214Z,19.64
2016-04-15T03:30:24.280Z,19.66
2016-04-15T03:31:24.314Z,19.67
2016-04-15T03:32:24.347Z,19.66
2016-04-15T03:33:24.413Z,19.66
2016-04-15T03:34:24.478Z,19.69
2016-04-15T03:35:24.527Z,19.62
2016-04-15T03:36:24.577Z,19.66
2016-04-15T03:37:24.626Z,19.62
2016-04-15T03:38:24.676Z,19.7
2016-04-15T03:39:24.741Z,19.69
2016-04-15T03:40:24.807Z,19.66
2016-04-15T03:41:24.840Z,19.63
2016-04-15T03:42:24.890Z,19.63
2016-04-15T03:43:24.940Z,19.63
2016-04-15T03:44:24.989Z,19.62
2016-04-15T03:45:25.132Z,19.69
2016-04-15T03:46:25.104Z,19.69
2016-04-15T03:47:25.138Z,19.63
2016-04-15T03:48:25.203Z,19.64
2016-04-15T03:49:25.253Z,19.66
2016-04-15T03:50:25.301Z,19.63
2016-04-15T03:51:25.351Z,19.73
2016-04-15T03:52:25.401Z,19.66
2016-04-15T03:53:25.466Z,19.63
2016-04-15T03:54:25.516Z,19.63
2016-04-15T03:55:25.550Z,19.59
2016-04-15T03:56:25.614Z,19.63
2016-04-15T03:57:25.664Z,19.59
2016-04-15T03:58:25.713Z,19.62
2016-04-15T03:59:25.763Z,19.63
2016-04-15T04:00:25.922Z,19.59
2016-04-15T04:01:25.894Z,19.64
2016-04-15T04:02:25.928Z,19.63
2016-04-15T04:03:25.977Z,19.64
2016-04-15T04:04:26.027Z,19.64
2016-04-15T04:05:26.092Z,19.59
2016-04-15T04:06:26.141Z,19.64
2016-04-15T04:07:26.191Z,19.62
2016-04-15T04:08:26.241Z,19.62
2016-04-15T04:09:26.290Z,19.66
2016-04-15T04:10:26.340Z,19.59
2016-04-15T04:11:26.405Z,19.64
2016-04-15T04:12:26.440Z,19.63
2016-04-15T04:13:26.488Z,19.63
2016-04-15T04:14:26.554Z,19.64
2016-04-15T04:15:26.682Z,19.62
2016-04-15T04:16:26.653Z,19.66
2016-04-15T04:17:25.968Z,19.54
2016-04-15T04:18:26.768Z,19.62
2016-04-15T04:19:26.817Z,19.58
2016-04-15T04:20:26.851Z,19.62
2016-04-15T04:21:26.917Z,19.64
2016-04-15T04:22:26.966Z,19.58
2016-04-15T04:23:27.015Z,19.59
2016-04-15T04:24:27.064Z,19.62
2016-04-15T04:25:27.114Z,19.66
2016-04-15T04:26:27.180Z,19.64
2016-04-15T04:27:27.230Z,19.56
2016-04-15T04:28:27.279Z,19.59
2016-04-15T04:29:27.329Z,19.66
2016-04-15T04:30:27.331Z,19.58
2016-04-15T04:31:27.444Z,19.59
2016-04-15T04:32:27.494Z,19.62
2016-04-15T04:33:27.542Z,19.62
2016-04-15T04:34:27.592Z,19.62
2016-04-15T04:35:27.657Z,19.59
2016-04-15T04:36:27.691Z,19.58
2016-04-15T04:37:27.741Z,19.62
2016-04-15T04:38:27.805Z,19.59
2016-04-15T04:39:27.855Z,19.59
2016-04-15T04:40:27.904Z,19.62
2016-04-15T04:41:27.954Z,19.64
2016-04-15T04:42:28.004Z,19.55
2016-04-15T04:43:28.069Z,19.62
2016-04-15T04:44:28.119Z,19.59
2016-04-15T04:45:28.418Z,19.55
2016-04-15T04:46:28.234Z,19.64
2016-04-15T04:47:28.268Z,19.59
2016-04-15T04:48:28.332Z,19.58
2016-04-15T04:49:28.382Z,19.58
2016-04-15T04:50:28.431Z,19.62
2016-04-15T04:51:28.486Z,19.58
2016-04-15T04:52:28.423Z,19.62
2016-04-15T04:53:28.673Z,19.66
2016-04-15T04:54:29.300Z,19.63
2016-04-15T04:55:28.698Z,19.58
2016-04-15T04:56:28.732Z,19.58
2016-04-15T04:57:28.781Z,19.59
2016-04-15T04:58:28.847Z,19.58
2016-04-15T04:59:28.897Z,19.56
2016-04-15T05:00:28.947Z,19.58
2016-04-15T05:01:28.995Z,19.56
2016-04-15T05:02:28.905Z,19.58
2016-04-15T05:03:29.095Z,19.56
2016-04-15T05:04:29.160Z,19.66
2016-04-15T05:05:29.225Z,19.63
2016-04-15T05:06:29.274Z,19.59
2016-04-15T05:07:29.324Z,19.58
2016-04-15T05:08:29.374Z,19.55
2016-04-15T05:09:29.423Z,19.52
2016-04-15T05:10:29.474Z,19.64
2016-04-15T05:11:29.522Z,19.56
2016-04-15T05:12:29.588Z,19.58
2016-04-15T05:13:29.622Z,19.59
2016-04-15T05:14:29.687Z,19.58
2016-04-15T05:15:29.737Z,19.62
2016-04-15T05:16:29.786Z,19.63
2016-04-15T05:17:29.851Z,19.56
2016-04-15T05:18:29.885Z,19.62
2016-04-15T05:19:29.934Z,19.56
2016-04-15T05:20:30.000Z,19.58
2016-04-15T05:21:30.049Z,19.56
2016-04-15T05:22:30.098Z,19.58
2016-04-15T05:23:30.148Z,19.59
2016-04-15T05:24:30.198Z,19.55
2016-04-15T05:25:30.247Z,19.56
2016-04-15T05:26:30.312Z,19.63
2016-04-15T05:27:30.347Z,19.62
2016-04-15T05:28:30.397Z,19.59
2016-04-15T05:29:30.462Z,19.52
2016-04-15T05:30:30.511Z,19.55
2016-04-15T05:31:30.561Z,19.63
2016-04-15T05:32:30.610Z,19.56
2016-04-15T05:33:30.660Z,19.62
2016-04-15T05:34:30.725Z,19.63
2016-04-15T05:35:30.774Z,19.63
2016-04-15T05:36:30.825Z,19.51
2016-04-15T05:37:30.874Z,19.59
2016-04-15T05:38:30.924Z,19.59
2016-04-15T05:39:30.973Z,19.58
2016-04-15T05:40:31.038Z,19.64
2016-04-15T05:41:31.103Z,19.64
2016-04-15T05:42:31.137Z,19.56
2016-04-15T05:43:31.187Z,19.54
2016-04-15T05:44:31.252Z,19.55
2016-04-15T05:45:31.301Z,19.59
2016-04-15T05:46:31.351Z,19.59
2016-04-15T05:47:31.401Z,19.58
2016-04-15T05:48:31.450Z,19.54
2016-04-15T05:49:31.531Z,19.66
2016-04-15T05:50:31.549Z,19.62
2016-04-15T05:51:31.598Z,19.63
2016-04-15T05:52:31.665Z,19.58
2016-04-15T05:53:31.714Z,19.56
2016-04-15T05:54:31.763Z,19.59
2016-04-15T05:55:31.829Z,19.59
2016-04-15T05:56:31.862Z,19.63
2016-04-15T05:57:31.912Z,19.62
2016-04-15T05:58:31.977Z,19.59
2016-04-15T05:59:32.026Z,19.59
2016-04-15T06:00:32.092Z,19.52
2016-04-15T06:01:32.125Z,19.58
2016-04-15T06:02:32.175Z,19.52
2016-04-15T06:03:32.240Z,19.64
2016-04-15T06:04:32.274Z,19.54
2016-04-15T06:05:32.339Z,19.58
2016-04-15T06:06:32.388Z,19.59
2016-04-15T06:07:32.438Z,19.55
2016-04-15T06:08:32.488Z,19.62
2016-04-15T06:09:32.553Z,19.56
2016-04-15T06:10:32.603Z,19.62
2016-04-15T06:11:32.653Z,19.59
2016-04-15T06:12:31.952Z,19.48
2016-04-15T06:13:32.752Z,19.54
2016-04-15T06:14:32.801Z,19.49
2016-04-15T06:15:32.851Z,19.52
2016-04-15T06:16:32.916Z,19.41
2016-04-15T06:17:32.965Z,19.47
2016-04-15T06:18:32.999Z,19.44
2016-04-15T06:19:33.065Z,19.4
2016-04-15T06:20:33.115Z,19.44
2016-04-15T06:21:33.029Z,19.39
2016-04-15T06:22:33.220Z,19.4
2016-04-15T06:23:33.270Z,19.36
2016-04-15T06:24:33.320Z,19.3
2016-04-15T06:25:33.369Z,19.29
2016-04-15T06:26:33.434Z,19.24
2016-04-15T06:27:33.472Z,19.26
2016-04-15T06:28:33.538Z,19.18
2016-04-15T06:29:33.587Z,19.24
2016-04-15T06:30:33.637Z,19.14
2016-04-15T06:31:33.687Z,19.15
2016-04-15T06:32:33.736Z,19.14
2016-04-15T06:33:33.802Z,19.26
2016-04-15T06:34:33.836Z,19.14
2016-04-15T06:35:33.901Z,19.18
2016-04-15T06:36:33.951Z,19.18
2016-04-15T06:37:34.000Z,19.12
2016-04-15T06:38:34.049Z,19.11
2016-04-15T06:39:34.099Z,19.16
2016-04-15T06:40:34.148Z,19.12
2016-04-15T06:41:34.214Z,19.14
2016-04-15T06:42:34.263Z,19.19
2016-04-15T06:43:34.312Z,19.26
2016-04-15T06:44:34.378Z,19.16
2016-04-15T06:45:34.411Z,19.14
2016-04-15T06:46:34.461Z,19.09
2016-04-15T06:47:34.511Z,19.11
2016-04-15T06:48:34.575Z,19.11
2016-04-15T06:49:34.626Z,19.15
2016-04-15T06:50:34.675Z,19.14
2016-04-15T06:51:34.725Z,19.08
2016-04-15T06:52:34.775Z,19.11
2016-04-15T06:53:34.855Z,19.14
2016-04-15T06:54:34.889Z,19.15
2016-04-15T06:55:34.922Z,19.14
2016-04-15T06:56:34.988Z,19.08
2016-04-15T06:57:35.038Z,19.09
2016-04-15T06:58:35.103Z,19.12
2016-04-15T06:59:35.153Z,19.11
2016-04-15T07:00:35.187Z,19.08
2016-04-15T07:01:35.236Z,19.02
2016-04-15T07:02:35.302Z,19.08
2016-04-15T07:03:35.351Z,19.07
2016-04-15T07:04:35.385Z,19
2016-04-15T07:05:35.450Z,19.11
2016-04-15T07:06:35.499Z,19.07
2016-04-15T07:07:35.393Z,19.09
2016-04-15T07:08:35.599Z,19.04
2016-04-15T07:09:35.648Z,19.07
2016-04-15T07:10:35.713Z,19.04
2016-04-15T07:11:35.762Z,19
2016-04-15T07:12:35.812Z,19.09
2016-04-15T07:13:35.862Z,19.12
2016-04-15T07:14:35.912Z,19.02
2016-04-15T07:15:35.977Z,18.95
2016-04-15T07:16:36.026Z,19.07
2016-04-15T07:17:36.076Z,19.07
2016-04-15T07:18:36.126Z,18.99
2016-04-15T07:19:36.176Z,19
2016-04-15T07:20:36.240Z,18.98
2016-04-15T07:21:36.279Z,19.02
2016-04-15T07:22:36.329Z,19.07
2016-04-15T07:23:36.378Z,18.98
2016-04-15T07:24:36.427Z,19.04
2016-04-15T07:25:36.493Z,18.99
2016-04-15T07:26:36.542Z,18.9
2016-04-15T07:27:36.581Z,18.93
2016-04-15T07:28:36.663Z,18.9
2016-04-15T07:29:36.681Z,18.9
2016-04-15T07:30:36.730Z,18.88
2016-04-15T07:31:36.796Z,18.88
2016-04-15T07:32:36.845Z,18.88
2016-04-15T07:33:36.895Z,18.89
2016-04-15T07:34:36.944Z,18.92
2016-04-15T07:35:36.993Z,18.89
2016-04-15T07:36:37.059Z,18.86
2016-04-15T07:37:37.108Z,18.89
2016-04-15T07:38:37.158Z,18.83
2016-04-15T07:39:37.208Z,18.86
2016-04-15T07:40:37.256Z,18.88
2016-04-15T07:41:37.307Z,18.84
2016-04-15T07:42:37.356Z,18.9
2016-04-15T07:43:37.406Z,18.84
2016-04-15T07:44:37.456Z,18.84
2016-04-15T07:45:37.520Z,18.86
2016-04-15T07:46:37.586Z,18.92
2016-04-15T07:47:37.619Z,18.84
2016-04-15T07:48:37.669Z,18.88
2016-04-15T07:49:37.719Z,18.86
2016-04-15T07:50:37.768Z,18.86
2016-04-15T07:51:37.833Z,18.84
2016-04-15T07:52:37.882Z,18.93
2016-04-15T07:53:37.916Z,18.83
2016-04-15T07:54:37.982Z,18.8
2016-04-15T07:55:38.031Z,18.8
2016-04-15T07:56:38.082Z,18.83
2016-04-15T07:57:38.131Z,18.77
2016-04-15T07:58:38.196Z,18.88
2016-04-15T07:59:38.229Z,18.89
2016-04-15T08:00:38.295Z,18.83
2016-04-15T08:01:38.345Z,18.8
2016-04-15T08:02:38.394Z,18.83
2016-04-15T08:03:38.443Z,18.83
2016-04-15T08:04:38.493Z,18.83
2016-04-15T08:05:38.543Z,18.84
2016-04-15T08:06:38.609Z,18.8
2016-04-15T08:07:38.643Z,18.8
2016-04-15T08:08:38.707Z,18.83
2016-04-15T08:09:38.757Z,18.89
2016-04-15T08:10:38.806Z,18.8
2016-04-15T08:11:38.856Z,18.78
2016-04-15T08:12:38.906Z,18.71
2016-04-15T08:13:38.970Z,18.8
2016-04-15T08:14:39.005Z,18.78
2016-04-15T08:15:39.054Z,18.68
2016-04-15T08:16:38.964Z,18.68
2016-04-15T08:17:39.169Z,18.63
2016-04-15T08:18:39.219Z,18.6
2016-04-15T08:19:39.269Z,18.53
2016-04-15T08:20:39.333Z,18.47
2016-04-15T08:21:39.373Z,18.38
2016-04-15T08:22:39.423Z,18.37
2016-04-15T08:23:39.472Z,18.35
2016-04-15T08:24:39.522Z,18.38
2016-04-15T08:25:39.571Z,18.31
2016-04-15T08:26:39.621Z,18.37
2016-04-15T08:27:39.670Z,18.31
2016-04-15T08:28:39.719Z,18.33
2016-04-15T08:29:39.770Z,18.28
2016-04-15T08:30:39.850Z,18.28
2016-04-15T08:31:39.890Z,18.2
2016-04-15T08:32:39.981Z,18.19
2016-04-15T08:33:40.073Z,18.18
2016-04-15T08:34:40.165Z,18.16
2016-04-15T08:35:40.274Z,18.13
2016-04-15T08:36:40.394Z,18.11
2016-04-15T08:37:40.427Z,18.15
2016-04-15T08:38:40.508Z,18.08
2016-04-15T08:39:40.557Z,18.05
2016-04-15T08:40:40.606Z,18.08
2016-04-15T08:41:40.686Z,18.13
2016-04-15T08:42:39.991Z,18.03
2016-04-15T08:43:40.796Z,18.08
2016-04-15T08:44:40.852Z,18.05
2016-04-15T08:45:40.922Z,18.05
2016-04-15T08:46:40.976Z,18.04
2016-04-15T08:47:40.903Z,17.97
2016-04-15T08:48:41.079Z,18
2016-04-15T08:49:41.131Z,17.98
2016-04-15T08:50:41.181Z,17.87
2016-04-15T08:51:41.233Z,17.9
2016-04-15T08:52:41.284Z,17.87
2016-04-15T08:53:41.334Z,17.92
2016-04-15T08:54:41.385Z,17.79
2016-04-15T08:55:41.435Z,17.86
2016-04-15T08:56:41.485Z,17.86
2016-04-15T08:57:41.535Z,17.86
2016-04-15T08:58:41.600Z,17.89
2016-04-15T08:59:41.635Z,17.87
2016-04-15T09:00:41.700Z,17.78
2016-04-15T09:01:41.750Z,17.86
2016-04-15T09:02:41.800Z,17.85
2016-04-15T09:03:41.865Z,17.9
2016-04-15T09:04:41.915Z,17.95
2016-04-15T09:05:41.980Z,18
2016-04-15T09:06:41.998Z,17.98
2016-04-15T09:07:42.048Z,18
2016-04-15T09:08:42.112Z,18.05
2016-04-15T09:09:42.147Z,18.04
2016-04-15T09:10:42.243Z,18.08
2016-04-15T09:11:42.261Z,18.08
2016-04-15T09:12:42.311Z,18.11
2016-04-15T09:13:42.344Z,18.11
2016-04-15T09:14:42.410Z,18.1
2016-04-15T09:15:42.460Z,18.1
2016-04-15T09:16:42.556Z,18.1
2016-04-15T09:17:42.559Z,18.1
2016-04-15T09:18:42.608Z,18.13
2016-04-15T09:19:42.674Z,18.13
2016-04-15T09:20:42.707Z,18.15
2016-04-15T09:21:42.757Z,18.13
2016-04-15T09:22:42.822Z,18.11
2016-04-15T09:23:42.872Z,18.1
2016-04-15T09:24:42.905Z,18.07
2016-04-15T09:25:42.972Z,18.04
2016-04-15T09:26:43.021Z,18.03
2016-04-15T09:27:43.071Z,18.05
2016-04-15T09:28:43.104Z,18.1
2016-04-15T09:29:43.169Z,18.1
2016-04-15T09:30:43.235Z,18.15
2016-04-15T09:31:43.378Z,18.15
2016-04-15T09:32:43.318Z,18.07
2016-04-15T09:33:43.367Z,18.04
2016-04-15T09:34:43.432Z,18.05
2016-04-15T09:35:43.482Z,18.1
2016-04-15T09:36:43.532Z,18.2
2016-04-15T09:37:43.582Z,18.11
2016-04-15T09:38:43.647Z,18.15
2016-04-15T09:39:43.681Z,18.11
2016-04-15T09:40:43.730Z,18.07
2016-04-15T09:41:43.780Z,18.13
2016-04-15T09:42:43.845Z,18.08
2016-04-15T09:43:43.894Z,18.11
2016-04-15T09:44:43.944Z,18.15
2016-04-15T09:45:43.977Z,18.15
2016-04-15T09:46:44.199Z,18.13
2016-04-15T09:47:44.092Z,18.13
2016-04-15T09:48:44.142Z,18.11
2016-04-15T09:49:44.192Z,18.07
2016-04-15T09:50:43.491Z,18.05
2016-04-15T09:51:44.291Z,18.19
2016-04-15T09:52:44.340Z,18.08
2016-04-15T09:53:44.390Z,18.22
2016-04-15T09:54:44.440Z,18.22
2016-04-15T09:55:44.489Z,18.07
2016-04-15T09:56:44.555Z,18.26
2016-04-15T09:57:44.605Z,18.19
2016-04-15T09:58:44.654Z,18.22
2016-04-15T09:59:44.704Z,18.2
2016-04-15T10:00:44.737Z,18.2
2016-04-15T10:01:45.021Z,18.19
2016-04-15T10:02:44.867Z,18.22
2016-04-15T10:03:44.901Z,18.19
2016-04-15T10:04:44.967Z,18.16
2016-04-15T10:05:45.000Z,18.16
2016-04-15T10:06:45.050Z,18.19
2016-04-15T10:07:45.115Z,18.11
2016-04-15T10:08:45.165Z,18.15
2016-04-15T10:09:45.059Z,18.15
2016-04-15T10:10:45.264Z,18.19
2016-04-15T10:11:45.345Z,18.08
2016-04-15T10:12:45.363Z,18.11
2016-04-15T10:13:44.662Z,18.19
2016-04-15T10:14:45.462Z,18.18
2016-04-15T10:15:45.511Z,18.22
2016-04-15T10:16:46.170Z,18.16
2016-04-15T10:17:45.610Z,18.07
2016-04-15T10:18:45.675Z,18.08
2016-04-15T10:19:45.725Z,18.16
2016-04-15T10:20:45.775Z,18.18
2016-04-15T10:21:45.856Z,18.03
2016-04-15T10:22:45.890Z,18.18
2016-04-15T10:23:45.924Z,18.1
2016-04-15T10:24:45.973Z,18.16
2016-04-15T10:25:46.023Z,18.07
2016-04-15T10:26:46.072Z,18.18
2016-04-15T10:27:46.122Z,18.04
2016-04-15T10:28:46.203Z,18.11
2016-04-15T10:29:46.222Z,18.18
2016-04-15T10:30:46.287Z,18.1
2016-04-15T10:31:46.883Z,18.13
2016-04-15T10:32:46.370Z,18.2
2016-04-15T10:33:46.279Z,18.18
2016-04-15T10:34:46.484Z,18.18
2016-04-15T10:35:46.534Z,18.16
2016-04-15T10:36:46.599Z,18.16
2016-04-15T10:37:46.633Z,18.13
2016-04-15T10:38:46.699Z,18.15
2016-04-15T10:39:46.732Z,18.13
2016-04-15T10:40:46.782Z,18.19
2016-04-15T10:41:46.862Z,18.18
2016-04-15T10:42:46.897Z,18.2
2016-04-15T10:43:46.790Z,18.22
2016-04-15T10:44:46.995Z,18.2
2016-04-15T10:45:47.061Z,18.2
2016-04-15T10:46:47.110Z,18.08
2016-04-15T10:47:47.144Z,18.15
2016-04-15T10:48:47.194Z,18.19
2016-04-15T10:49:47.243Z,18.15
2016-04-15T10:50:47.294Z,18.13
2016-04-15T10:51:47.358Z,18.16
2016-04-15T10:52:47.408Z,18.16
2016-04-15T10:53:47.457Z,18.15
2016-04-15T10:54:47.507Z,18.15
2016-04-15T10:55:47.572Z,18.18
2016-04-15T10:56:47.622Z,18.13
2016-04-15T10:57:47.656Z,18.08
2016-04-15T10:58:47.706Z,18.2
2016-04-15T10:59:47.771Z,18.13
2016-04-15T11:00:47.805Z,18.19
2016-04-15T11:01:47.871Z,18.07
2016-04-15T11:02:47.919Z,18.07
2016-04-15T11:03:47.969Z,18.11
2016-04-15T11:04:48.018Z,18.13
2016-04-15T11:05:48.068Z,18.16
2016-04-15T11:06:48.148Z,18.16
2016-04-15T11:07:48.182Z,18.16
2016-04-15T11:08:48.217Z,18.15
2016-04-15T11:09:48.267Z,18.16
2016-04-15T11:10:48.332Z,18.19
2016-04-15T11:11:48.397Z,18.19
2016-04-15T11:12:48.431Z,18.16
2016-04-15T11:13:48.481Z,18.04
2016-04-15T11:14:48.530Z,18.2
2016-04-15T11:15:48.595Z,18.15
2016-04-15T11:16:48.753Z,18.19
2016-04-15T11:17:48.678Z,18.11
2016-04-15T11:18:48.727Z,18.13
2016-04-15T11:19:48.777Z,18.19
2016-04-15T11:20:48.827Z,18.07
2016-04-15T11:21:48.892Z,18.18
2016-04-15T11:22:48.927Z,18.18
2016-04-15T11:23:48.991Z,18.16
2016-04-15T11:24:49.057Z,18.22
2016-04-15T11:25:49.105Z,18.05
2016-04-15T11:26:49.155Z,18.16
2016-04-15T11:27:49.190Z,18.11
2016-04-15T11:28:49.239Z,18.19
2016-04-15T11:29:49.289Z,18.11
2016-04-15T11:30:49.339Z,18.13
2016-04-15T11:31:49.388Z,18.15
2016-04-15T11:32:49.454Z,18.1
2016-04-15T11:33:49.502Z,18.15
2016-04-15T11:34:49.568Z,18.11
2016-04-15T11:35:49.602Z,18.15
2016-04-15T11:36:49.901Z,18.16
2016-04-15T11:37:49.701Z,18.16
2016-04-15T11:38:49.750Z,18.18
2016-04-15T11:39:49.801Z,18.2
2016-04-15T11:40:49.850Z,18.19
2016-04-15T11:41:50.462Z,18.18
2016-04-15T11:42:49.948Z,18.22
2016-04-15T11:43:50.014Z,18.23
2016-04-15T11:44:50.064Z,18.2
2016-04-15T11:45:50.113Z,18.19
2016-04-15T11:46:50.162Z,18.23
2016-04-15T11:47:50.228Z,18.23
2016-04-15T11:48:50.277Z,18.23
2016-04-15T11:49:50.327Z,18.23
2016-04-15T11:50:50.361Z,18.22
2016-04-15T11:51:50.410Z,18.25
2016-04-15T11:52:50.475Z,18.28
2016-04-15T11:53:50.525Z,18.19
2016-04-15T11:54:50.590Z,18.2
2016-04-15T11:55:50.624Z,18.2
2016-04-15T11:56:50.674Z,18.2
2016-04-15T11:57:50.739Z,18.25
2016-04-15T11:58:50.774Z,18.2
2016-04-15T11:59:50.838Z,18.23
2016-04-15T12:00:50.888Z,18.08
2016-04-15T12:01:50.921Z,18.22
2016-04-15T12:02:50.987Z,18.23
2016-04-15T12:03:51.020Z,18.1
2016-04-15T12:04:51.070Z,18.22
2016-04-15T12:05:51.135Z,18.22
2016-04-15T12:06:51.248Z,18.26
2016-04-15T12:07:51.234Z,18.2
2016-04-15T12:08:51.160Z,18.2
2016-04-15T12:09:51.336Z,18.22
2016-04-15T12:10:51.386Z,18.26
2016-04-15T12:11:51.498Z,18.22
2016-04-15T12:12:51.500Z,18.2
2016-04-15T12:13:51.550Z,18.23
2016-04-15T12:14:51.614Z,18.22
2016-04-15T12:15:51.633Z,18.2
2016-04-15T12:16:51.760Z,18.19
2016-04-15T12:17:51.748Z,18.22
2016-04-15T12:18:51.797Z,18.23
2016-04-15T12:19:51.847Z,18.25
2016-04-15T12:20:51.897Z,18.22
2016-04-15T12:21:51.665Z,18.25
2016-04-15T12:22:52.011Z,18.26
2016-04-15T12:23:52.045Z,18.25
2016-04-15T12:24:52.095Z,18.26
2016-04-15T12:25:52.185Z,18.19
2016-04-15T12:26:52.219Z,18.18
2016-04-15T12:27:52.253Z,18.26
2016-04-15T12:28:52.303Z,18.18
2016-04-15T12:29:52.368Z,18.2
2016-04-15T12:30:52.403Z,18.19
2016-04-15T12:31:52.467Z,18.16
2016-04-15T12:32:52.533Z,18.11
2016-04-15T12:33:52.550Z,18.19
2016-04-15T12:34:52.616Z,18.13
2016-04-15T12:35:52.666Z,18.19
2016-04-15T12:36:52.731Z,18.22
2016-04-15T12:37:52.765Z,18.07
2016-04-15T12:38:52.830Z,18.18
2016-04-15T12:39:52.864Z,18.1
2016-04-15T12:40:52.929Z,18.08
2016-04-15T12:41:52.978Z,18.13
2016-04-15T12:42:53.028Z,18.13
2016-04-15T12:43:53.077Z,18.13
2016-04-15T12:44:53.111Z,18.22
2016-04-15T12:45:53.176Z,18.19
2016-04-15T12:46:53.227Z,18.22
2016-04-15T12:47:53.276Z,18.22
2016-04-15T12:48:53.326Z,18.2
2016-04-15T12:49:53.375Z,18.22
2016-04-15T12:50:53.440Z,18.26
2016-04-15T12:51:53.490Z,18.16
2016-04-15T12:52:53.539Z,18.25
2016-04-15T12:53:53.589Z,18.31
2016-04-15T12:54:53.637Z,18.28
2016-04-15T12:55:53.687Z,18.23